Time;durP1;ratioP1;P1;durP2;ratioP2;P2;SDS_P1;SDS_P2;PMS_P1;PMS_P2;Temp;Humidity;BMP_temperature;BMP_pressure;BME280_temperature;BME280_humidity;BME280_pressure;Samples;Min_cycle;Max_cycle;Signal;HPM_P1;HPM_P2
2024/01/18 00:01:35;;;;;;;1.63;1.05;;;;;;;;;;5088207;28;20207;-72
2024/01/18 00:04:02;;;;;;;0.70;0.70;;;;;;;;;;5088099;28;20212;-70
2024/01/18 00:06:28;;;;;;;0.55;0.55;;;;;;;;;;5088447;28;20250;-71
2024/01/18 00:08:55;;;;;;;0.55;0.55;;;;;;;;;;5088164;28;20219;-71
2024/01/18 00:11:21;;;;;;;0.40;0.40;;;;;;;;;;5088028;28;20207;-71
2024/01/18 00:13:48;;;;;;;0.60;0.60;;;;;;;;;;5088065;28;20204;-71
2024/01/18 00:16:14;;;;;;;0.50;0.50;;;;;;;;;;5093733;28;20227;-72
2024/01/18 00:18:41;;;;;;;0.43;0.43;;;;;;;;;;5095660;28;20644;-71
2024/01/18 00:21:08;;;;;;;0.47;0.47;;;;;;;;;;5095428;28;20623;-71
2024/01/18 00:23:34;;;;;;;0.60;0.60;;;;;;;;;;5092935;28;20200;-71
2024/01/18 00:26:00;;;;;;;0.50;0.50;;;;;;;;;;5093652;28;20219;-71
2024/01/18 00:28:26;;;;;;;0.40;0.40;;;;;;;;;;5092383;28;20234;-71
2024/01/18 00:30:53;;;;;;;0.35;0.35;;;;;;;;;;5092516;28;20218;-71
2024/01/18 00:33:19;;;;;;;0.85;0.40;;;;;;;;;;5092670;28;20203;-71
2024/01/18 00:35:48;;;;;;;0.85;0.40;;;;;;;;;;5092738;28;20269;-71
2024/01/18 00:38:14;;;;;;;0.45;0.45;;;;;;;;;;5092259;28;20245;-71
2024/01/18 00:40:41;;;;;;;0.30;0.30;;;;;;;;;;5092222;28;20289;-71
2024/01/18 00:43:08;;;;;;;0.30;0.30;;;;;;;;;;5093769;28;20208;-71
2024/01/18 00:45:34;;;;;;;0.43;0.43;;;;;;;;;;5093870;28;20228;-71
2024/01/18 00:48:00;;;;;;;1.20;0.43;;;;;;;;;;5093677;28;20227;-71
2024/01/18 00:50:26;;;;;;;0.38;0.38;;;;;;;;;;5093784;28;20212;-71
2024/01/18 00:52:54;;;;;;;1.58;0.40;;;;;;;;;;5093618;28;20207;-71
2024/01/18 00:55:20;;;;;;;0.57;0.52;;;;;;;;;;5093406;28;20277;-70
2024/01/18 00:57:46;;;;;;;1.95;0.50;;;;;;;;;;5093808;28;20220;-70
2024/01/18 01:00:14;;;;;;;0.77;0.40;;;;;;;;;;5093537;28;20204;-70
2024/01/18 01:02:40;;;;;;;2.17;0.40;;;;;;;;;;5093223;28;20668;-70
2024/01/18 01:05:07;;;;;;;0.40;0.40;;;;;;;;;;5093333;28;20653;-70
2024/01/18 01:07:33;;;;;;;0.68;0.43;;;;;;;;;;5093089;28;20257;-70
2024/01/18 01:10:01;;;;;;;0.75;0.45;;;;;;;;;;5093189;28;20208;-70
2024/01/18 01:12:27;;;;;;;0.40;0.40;;;;;;;;;;5093461;28;20210;-70
2024/01/18 01:14:53;;;;;;;0.45;0.45;;;;;;;;;;5093349;28;20200;-70
2024/01/18 01:17:19;;;;;;;0.50;0.40;;;;;;;;;;5093382;28;20221;-70
2024/01/18 01:19:46;;;;;;;0.35;0.35;;;;;;;;;;5093192;28;20203;-71
2024/01/18 01:22:12;;;;;;;0.50;0.50;;;;;;;;;;5092814;28;20211;-71
2024/01/18 01:24:38;;;;;;;0.50;0.50;;;;;;;;;;5092759;28;20204;-71
2024/01/18 01:27:06;;;;;;;0.50;0.50;;;;;;;;;;5092922;28;20272;-71
2024/01/18 01:29:32;;;;;;;0.50;0.50;;;;;;;;;;5092811;28;20306;-71
2024/01/18 01:31:59;;;;;;;1.13;0.40;;;;;;;;;;5092826;28;20199;-72
2024/01/18 01:34:25;;;;;;;0.40;0.40;;;;;;;;;;5093046;28;20565;-72
2024/01/18 01:36:51;;;;;;;0.40;0.40;;;;;;;;;;5092832;28;20227;-71
2024/01/18 01:39:18;;;;;;;0.60;0.38;;;;;;;;;;5092733;28;20282;-72
2024/01/18 01:41:44;;;;;;;1.30;0.30;;;;;;;;;;5092838;28;20256;-71
2024/01/18 01:44:12;;;;;;;1.13;0.50;;;;;;;;;;5092881;28;20203;-71
2024/01/18 01:46:38;;;;;;;0.68;0.50;;;;;;;;;;5092724;28;20223;-71
2024/01/18 01:49:06;;;;;;;0.40;0.40;;;;;;;;;;5092398;28;20273;-71
2024/01/18 01:51:35;;;;;;;0.45;0.45;;;;;;;;;;5092301;28;20616;-71
2024/01/18 01:54:02;;;;;;;0.45;0.40;;;;;;;;;;5092783;28;20196;-71
2024/01/18 01:56:28;;;;;;;0.50;0.50;;;;;;;;;;5092466;28;20281;-71
2024/01/18 01:58:54;;;;;;;1.00;0.30;;;;;;;;;;5092234;28;20656;-71
2024/01/18 02:01:22;;;;;;;1.33;0.60;;;;;;;;;;5092336;28;20204;-71
2024/01/18 02:03:48;;;;;;;0.30;0.30;;;;;;;;;;5092518;28;20199;-71
2024/01/18 02:06:15;;;;;;;0.45;0.45;;;;;;;;;;5092302;28;20235;-71
2024/01/18 02:08:42;;;;;;;0.90;0.50;;;;;;;;;;5092167;28;20223;-71
2024/01/18 02:11:08;;;;;;;0.40;0.40;;;;;;;;;;5092541;28;20211;-71
2024/01/18 02:13:35;;;;;;;0.47;0.47;;;;;;;;;;5092515;28;20272;-71
2024/01/18 02:16:02;;;;;;;0.40;0.40;;;;;;;;;;5092380;28;20276;-71
2024/01/18 02:18:30;;;;;;;0.57;0.50;;;;;;;;;;5092659;28;20191;-71
2024/01/18 02:20:56;;;;;;;0.68;0.50;;;;;;;;;;5092016;28;20210;-71
2024/01/18 02:23:23;;;;;;;0.40;0.40;;;;;;;;;;5092083;28;20199;-71
2024/01/18 02:25:50;;;;;;;0.40;0.40;;;;;;;;;;5092342;28;20227;-71
2024/01/18 02:28:17;;;;;;;0.47;0.47;;;;;;;;;;5092211;28;20220;-71
2024/01/18 02:30:43;;;;;;;0.65;0.40;;;;;;;;;;5094854;28;20200;-71
2024/01/18 02:33:09;;;;;;;2.42;0.40;;;;;;;;;;5104745;28;20199;-71
2024/01/18 02:35:35;;;;;;;0.40;0.40;;;;;;;;;;5103999;28;20242;-71
2024/01/18 02:38:02;;;;;;;0.30;0.30;;;;;;;;;;5104027;28;20200;-71
2024/01/18 02:40:28;;;;;;;0.40;0.40;;;;;;;;;;5103208;28;20256;-71
2024/01/18 02:42:56;;;;;;;0.35;0.35;;;;;;;;;;5102002;28;20547;-71
2024/01/18 02:45:22;;;;;;;0.60;0.40;;;;;;;;;;5101945;28;20216;-71
2024/01/18 02:47:48;;;;;;;2.20;0.60;;;;;;;;;;5101187;28;20208;-71
2024/01/18 02:50:14;;;;;;;0.30;0.30;;;;;;;;;;5103239;28;20223;-71
2024/01/18 02:52:41;;;;;;;0.40;0.40;;;;;;;;;;5096571;28;20200;-71
2024/01/18 02:55:07;;;;;;;0.30;0.30;;;;;;;;;;5096056;28;20211;-70
2024/01/18 02:57:33;;;;;;;0.30;0.30;;;;;;;;;;5101433;28;20283;-71
2024/01/18 03:00:01;;;;;;;0.30;0.30;;;;;;;;;;5092864;28;20207;-71
2024/01/18 03:02:27;;;;;;;0.30;0.30;;;;;;;;;;5093395;28;20664;-71
2024/01/18 03:04:54;;;;;;;0.52;0.30;;;;;;;;;;5098404;28;20203;-71
2024/01/18 03:07:20;;;;;;;0.30;0.30;;;;;;;;;;5092512;28;20210;-71
2024/01/18 03:09:47;;;;;;;0.40;0.40;;;;;;;;;;5092531;28;20231;-71
2024/01/18 03:12:13;;;;;;;0.47;0.40;;;;;;;;;;5092520;28;20290;-71
2024/01/18 03:14:39;;;;;;;0.47;0.40;;;;;;;;;;5092572;28;20203;-71
2024/01/18 03:17:07;;;;;;;1.55;0.30;;;;;;;;;;5092247;28;20227;-71
2024/01/18 03:19:33;;;;;;;0.47;0.47;;;;;;;;;;5092861;28;20200;-71
2024/01/18 03:21:59;;;;;;;1.55;0.40;;;;;;;;;;5092084;28;20211;-71
2024/01/18 03:24:26;;;;;;;0.75;0.40;;;;;;;;;;5092394;28;20200;-71
2024/01/18 03:26:52;;;;;;;0.30;0.30;;;;;;;;;;5091931;28;20301;-71
2024/01/18 03:29:18;;;;;;;0.30;0.30;;;;;;;;;;5092173;28;20224;-71
2024/01/18 03:31:44;;;;;;;0.60;0.60;;;;;;;;;;5092146;28;20230;-71
2024/01/18 03:34:12;;;;;;;0.40;0.40;;;;;;;;;;5093628;28;20641;-71
2024/01/18 03:36:38;;;;;;;1.77;0.50;;;;;;;;;;5095983;28;20393;-71
2024/01/18 03:39:06;;;;;;;0.40;0.40;;;;;;;;;;5095537;28;20196;-71
2024/01/18 03:41:32;;;;;;;0.50;0.50;;;;;;;;;;5095637;28;20203;-71
2024/01/18 03:43:59;;;;;;;0.98;0.50;;;;;;;;;;5095661;28;20214;-71
2024/01/18 03:46:25;;;;;;;3.45;0.50;;;;;;;;;;5095261;28;20307;-71
2024/01/18 03:48:51;;;;;;;1.30;0.70;;;;;;;;;;5095210;28;20269;-71
2024/01/18 03:51:19;;;;;;;2.60;2.47;;;;;;;;;;5095415;28;20200;-71
2024/01/18 03:53:45;;;;;;;3.05;1.17;;;;;;;;;;5095476;28;20200;-71
2024/01/18 03:56:12;;;;;;;0.70;0.70;;;;;;;;;;5095153;28;20224;-71
2024/01/18 03:58:39;;;;;;;0.90;0.70;;;;;;;;;;5094811;28;20346;-71
2024/01/18 04:01:06;;;;;;;4.32;0.70;;;;;;;;;;5095247;28;20250;-71
2024/01/18 04:03:32;;;;;;;1.10;0.70;;;;;;;;;;5095187;28;20277;-71
2024/01/18 04:05:59;;;;;;;0.50;0.50;;;;;;;;;;5094782;28;20254;-71
2024/01/18 04:08:26;;;;;;;1.35;0.55;;;;;;;;;;5094662;28;20644;-71
2024/01/18 04:10:52;;;;;;;1.45;0.80;;;;;;;;;;5094944;28;20196;-71
2024/01/18 04:13:19;;;;;;;1.70;0.77;;;;;;;;;;5094966;28;20211;-71
2024/01/18 04:15:45;;;;;;;2.58;0.88;;;;;;;;;;5094752;28;20224;-71
2024/01/18 04:18:11;;;;;;;0.47;0.47;;;;;;;;;;5094758;28;20204;-71
2024/01/18 04:20:38;;;;;;;0.70;0.50;;;;;;;;;;5094862;28;20232;-71
2024/01/18 04:23:04;;;;;;;1.70;0.63;;;;;;;;;;5094483;28;20208;-71
2024/01/18 04:25:32;;;;;;;1.85;0.50;;;;;;;;;;5094665;28;20224;-71
2024/01/18 04:27:58;;;;;;;0.73;0.40;;;;;;;;;;5094556;28;20196;-71
2024/01/18 04:30:24;;;;;;;1.98;0.50;;;;;;;;;;5094484;28;20310;-71
2024/01/18 04:32:51;;;;;;;1.40;0.63;;;;;;;;;;5094641;28;20226;-71
2024/01/18 04:35:17;;;;;;;1.23;0.60;;;;;;;;;;5094434;28;20224;-71
2024/01/18 04:37:43;;;;;;;0.82;0.55;;;;;;;;;;5094278;28;20528;-71
2024/01/18 04:40:10;;;;;;;0.85;0.70;;;;;;;;;;5094235;28;20256;-71
2024/01/18 04:42:38;;;;;;;1.17;0.70;;;;;;;;;;5094119;28;20199;-71
2024/01/18 04:45:06;;;;;;;1.67;1.10;;;;;;;;;;5094090;28;20203;-71
2024/01/18 04:47:32;;;;;;;1.52;1.42;;;;;;;;;;5094030;28;20294;-71
2024/01/18 04:49:59;;;;;;;1.13;0.80;;;;;;;;;;5094048;28;20714;-71
2024/01/18 04:52:25;;;;;;;0.80;0.80;;;;;;;;;;5093954;28;20224;-71
2024/01/18 04:54:51;;;;;;;0.80;0.80;;;;;;;;;;5094059;28;20200;-71
2024/01/18 04:57:17;;;;;;;1.50;1.40;;;;;;;;;;5093658;28;20228;-71
2024/01/18 04:59:45;;;;;;;1.60;1.40;;;;;;;;;;5093887;28;20882;-71
2024/01/18 05:02:11;;;;;;;2.85;1.75;;;;;;;;;;5093620;28;20219;-71
2024/01/18 05:04:37;;;;;;;2.10;1.98;;;;;;;;;;5093597;28;20200;-71
2024/01/18 05:07:04;;;;;;;2.88;2.67;;;;;;;;;;5093541;28;20262;-71
2024/01/18 05:09:30;;;;;;;4.35;4.00;;;;;;;;;;5093575;28;20280;-71
2024/01/18 05:11:56;;;;;;;5.55;5.20;;;;;;;;;;5093680;28;21111;-71
2024/01/18 05:14:23;;;;;;;7.32;6.45;;;;;;;;;;5093560;28;20241;-71
2024/01/18 05:16:53;;;;;;;7.30;6.75;;;;;;;;;;5093299;28;20712;-71
2024/01/18 05:19:19;;;;;;;8.48;7.30;;;;;;;;;;5093683;28;20215;-71
2024/01/18 05:21:46;;;;;;;7.75;7.15;;;;;;;;;;5092678;28;20289;-71
2024/01/18 05:24:12;;;;;;;7.70;7.00;;;;;;;;;;5092672;28;20248;-71
2024/01/18 05:26:38;;;;;;;7.65;7.07;;;;;;;;;;5092698;28;20227;-71
2024/01/18 05:29:04;;;;;;;8.25;7.55;;;;;;;;;;5092408;28;20206;-71
2024/01/18 05:31:31;;;;;;;8.48;7.68;;;;;;;;;;5092332;28;20200;-71
2024/01/18 05:33:59;;;;;;;8.07;7.38;;;;;;;;;;5092399;28;20246;-71
2024/01/18 05:36:26;;;;;;;7.85;7.28;;;;;;;;;;5092165;28;20269;-71
2024/01/18 05:38:52;;;;;;;8.38;7.65;;;;;;;;;;5091973;28;20200;-71
2024/01/18 05:41:19;;;;;;;8.23;7.47;;;;;;;;;;5092103;28;20191;-71
2024/01/18 05:43:45;;;;;;;8.00;7.38;;;;;;;;;;5092322;28;20203;-71
2024/01/18 05:46:11;;;;;;;8.48;7.45;;;;;;;;;;5092141;28;20306;-71
2024/01/18 05:48:38;;;;;;;8.10;7.43;;;;;;;;;;5092052;28;20242;-71
2024/01/18 05:51:06;;;;;;;9.07;8.18;;;;;;;;;;5091900;28;20223;-71
2024/01/18 05:53:32;;;;;;;8.55;7.53;;;;;;;;;;5091889;28;20719;-71
2024/01/18 05:55:59;;;;;;;8.38;7.68;;;;;;;;;;5091483;28;20761;-71
2024/01/18 05:58:25;;;;;;;9.35;8.23;;;;;;;;;;5091481;28;20196;-71
2024/01/18 06:00:51;;;;;;;10.52;9.50;;;;;;;;;;5092053;28;20196;-70
2024/01/18 06:03:18;;;;;;;10.40;9.32;;;;;;;;;;5091924;28;20199;-70
2024/01/18 06:05:45;;;;;;;11.27;9.35;;;;;;;;;;5091654;28;20249;-70
2024/01/18 06:08:12;;;;;;;10.38;9.00;;;;;;;;;;5091778;28;20204;-71
2024/01/18 06:10:38;;;;;;;13.32;9.38;;;;;;;;;;5091727;28;20638;-71
2024/01/18 06:13:05;;;;;;;10.68;9.05;;;;;;;;;;5091763;28;20623;-71
2024/01/18 06:15:31;;;;;;;9.77;8.88;;;;;;;;;;5091687;28;20564;-71
2024/01/18 06:18:03;;;;;;;12.82;10.32;;;;;;;;;;5091760;28;20290;-71
2024/01/18 06:20:29;;;;;;;12.05;10.88;;;;;;;;;;5055071;28;1038255;-71
2024/01/18 06:22:57;;;;;;;12.77;10.75;;;;;;;;;;5092279;28;20200;-71
2024/01/18 06:25:25;;;;;;;15.63;11.10;;;;;;;;;;5092695;28;20239;-71
2024/01/18 06:27:51;;;;;;;12.40;10.95;;;;;;;;;;5092239;28;20211;-71
2024/01/18 06:30:18;;;;;;;12.10;10.73;;;;;;;;;;5092204;28;20219;-72
2024/01/18 06:32:44;;;;;;;10.02;9.13;;;;;;;;;;5092088;28;20245;-72
2024/01/18 06:35:11;;;;;;;9.00;8.13;;;;;;;;;;5092025;28;20280;-71
2024/01/18 06:37:37;;;;;;;7.22;6.68;;;;;;;;;;5092638;28;20203;-71
2024/01/18 06:40:04;;;;;;;7.10;6.50;;;;;;;;;;5092584;28;20191;-71
2024/01/18 06:42:32;;;;;;;5.63;5.10;;;;;;;;;;5092375;28;20211;-71
2024/01/18 06:44:58;;;;;;;3.83;3.65;;;;;;;;;;5092139;28;20204;-71
2024/01/18 06:47:26;;;;;;;2.90;2.80;;;;;;;;;;5092396;28;20569;-69
2024/01/18 06:49:53;;;;;;;3.20;3.00;;;;;;;;;;5092071;28;20220;-64
2024/01/18 06:52:19;;;;;;;3.15;2.85;;;;;;;;;;5091846;28;20208;-64
2024/01/18 06:54:45;;;;;;;2.88;2.78;;;;;;;;;;5092050;28;20204;-64
2024/01/18 06:57:11;;;;;;;3.50;3.30;;;;;;;;;;5091524;28;20765;-64
2024/01/18 06:59:45;;;;;;;2.92;2.80;;;;;;;;;;5091836;28;20200;-64
2024/01/18 07:02:11;;;;;;;2.88;2.67;;;;;;;;;;5091664;28;20612;-63
2024/01/18 07:04:37;;;;;;;2.70;2.60;;;;;;;;;;5091527;28;20664;-63
2024/01/18 07:07:04;;;;;;;3.67;2.53;;;;;;;;;;5091504;28;20707;-63
2024/01/18 07:09:32;;;;;;;2.50;2.40;;;;;;;;;;5095208;28;20862;-63
2024/01/18 07:11:58;;;;;;;2.47;2.28;;;;;;;;;;5095707;28;20215;-64
2024/01/18 07:14:24;;;;;;;2.55;2.35;;;;;;;;;;5095424;28;20824;-63
2024/01/18 07:16:52;;;;;;;2.20;2.10;;;;;;;;;;5095293;28;20290;-64
2024/01/18 07:19:18;;;;;;;2.88;2.50;;;;;;;;;;5095288;28;20697;-64
2024/01/18 07:21:45;;;;;;;2.15;2.10;;;;;;;;;;5095237;28;20341;-64
2024/01/18 07:24:11;;;;;;;1.90;1.90;;;;;;;;;;5095457;28;20791;-64
2024/01/18 07:26:38;;;;;;;2.15;2.00;;;;;;;;;;5095111;28;20644;-63
2024/01/18 07:29:04;;;;;;;1.70;1.60;;;;;;;;;;5094812;28;20204;-63
2024/01/18 07:31:31;;;;;;;2.10;2.00;;;;;;;;;;5094853;28;20227;-64
2024/01/18 07:33:58;;;;;;;1.73;1.55;;;;;;;;;;5095309;28;20260;-65
2024/01/18 07:36:24;;;;;;;2.55;1.77;;;;;;;;;;5095179;28;20224;-64
2024/01/18 07:38:51;;;;;;;1.55;1.55;;;;;;;;;;5094730;28;20204;-64
2024/01/18 07:41:17;;;;;;;4.20;2.22;;;;;;;;;;5083143;28;20203;-62
2024/01/18 07:43:43;;;;;;;2.08;1.98;;;;;;;;;;5089082;28;20207;-62
2024/01/18 07:46:09;;;;;;;3.00;1.88;;;;;;;;;;5089725;28;20220;-62
2024/01/18 07:48:36;;;;;;;2.00;1.90;;;;;;;;;;5089190;28;20281;-63
2024/01/18 07:51:03;;;;;;;2.15;2.05;;;;;;;;;;5086004;28;20277;-64
2024/01/18 07:53:30;;;;;;;3.80;2.03;;;;;;;;;;5082714;28;20285;-64
2024/01/18 07:55:56;;;;;;;1.65;1.65;;;;;;;;;;5087506;28;20227;-62
2024/01/18 07:58:22;;;;;;;1.77;1.67;;;;;;;;;;5087995;28;20192;-62
2024/01/18 08:00:50;;;;;;;1.75;1.63;;;;;;;;;;5087855;28;20216;-62
2024/01/18 08:03:16;;;;;;;1.60;1.60;;;;;;;;;;5088038;28;20211;-63
2024/01/18 08:05:42;;;;;;;1.70;1.70;;;;;;;;;;5087876;28;20829;-63
2024/01/18 08:08:10;;;;;;;1.80;1.60;;;;;;;;;;5087625;28;20256;-62
2024/01/18 08:10:36;;;;;;;1.88;1.27;;;;;;;;;;5088132;28;20253;-62
2024/01/18 08:13:03;;;;;;;1.70;1.63;;;;;;;;;;5087695;28;20216;-63
2024/01/18 08:15:30;;;;;;;2.70;1.88;;;;;;;;;;5086943;28;20227;-63
2024/01/18 08:17:56;;;;;;;2.85;1.60;;;;;;;;;;5087451;28;20612;-63
2024/01/18 08:20:23;;;;;;;1.67;1.58;;;;;;;;;;5086895;28;20257;-63
2024/01/18 08:22:50;;;;;;;1.70;1.60;;;;;;;;;;5087853;28;20310;-63
2024/01/18 08:25:18;;;;;;;1.80;1.80;;;;;;;;;;5087569;28;20215;-63
2024/01/18 08:27:44;;;;;;;1.70;1.70;;;;;;;;;;5087487;28;20963;-64
2024/01/18 08:30:11;;;;;;;1.95;1.85;;;;;;;;;;5087695;28;20216;-63
2024/01/18 08:32:37;;;;;;;2.05;1.98;;;;;;;;;;5084194;28;20595;-64
2024/01/18 08:35:06;;;;;;;2.80;2.13;;;;;;;;;;5085819;28;20226;-64
2024/01/18 08:37:32;;;;;;;2.38;2.28;;;;;;;;;;5086252;28;20210;-64
2024/01/18 08:39:59;;;;;;;2.30;2.17;;;;;;;;;;5083961;28;20257;-64
2024/01/18 08:42:26;;;;;;;2.65;2.55;;;;;;;;;;5086963;28;20207;-64
2024/01/18 08:44:52;;;;;;;4.03;3.83;;;;;;;;;;5086855;28;20211;-64
2024/01/18 08:47:19;;;;;;;3.60;2.75;;;;;;;;;;5087208;28;20257;-64
2024/01/18 08:49:45;;;;;;;2.40;2.30;;;;;;;;;;5087232;28;20881;-64
2024/01/18 08:52:11;;;;;;;2.20;2.20;;;;;;;;;;5083884;28;20219;-64
2024/01/18 08:54:37;;;;;;;2.60;2.40;;;;;;;;;;5087190;28;20302;-64
2024/01/18 08:57:04;;;;;;;2.80;2.70;;;;;;;;;;5086823;28;20227;-63
2024/01/18 08:59:32;;;;;;;2.45;2.35;;;;;;;;;;5087054;28;20253;-63
2024/01/18 09:01:58;;;;;;;2.55;2.45;;;;;;;;;;5087048;28;20203;-61
2024/01/18 09:04:24;;;;;;;2.92;2.83;;;;;;;;;;5087248;28;20665;-63
2024/01/18 09:06:51;;;;;;;2.80;2.70;;;;;;;;;;5086516;28;20639;-65
2024/01/18 09:09:17;;;;;;;2.90;2.70;;;;;;;;;;5085912;28;20227;-64
2024/01/18 09:11:44;;;;;;;14.40;3.00;;;;;;;;;;5085905;28;20227;-65
2024/01/18 09:14:10;;;;;;;2.85;2.65;;;;;;;;;;5086149;28;20238;-64
2024/01/18 09:16:38;;;;;;;2.85;2.75;;;;;;;;;;5085919;28;20285;-63
2024/01/18 09:19:04;;;;;;;2.70;2.60;;;;;;;;;;5085813;28;20203;-63
2024/01/18 09:21:30;;;;;;;3.38;3.28;;;;;;;;;;5085620;28;20235;-63
2024/01/18 09:23:56;;;;;;;2.40;2.30;;;;;;;;;;5085986;28;20208;-64
2024/01/18 09:26:23;;;;;;;2.60;2.50;;;;;;;;;;5085615;28;20314;-63
2024/01/18 09:28:49;;;;;;;2.67;2.60;;;;;;;;;;5085758;28;20261;-64
2024/01/18 09:31:15;;;;;;;2.63;2.53;;;;;;;;;;5084599;28;20235;-63
2024/01/18 09:33:43;;;;;;;2.28;2.17;;;;;;;;;;5085344;28;20261;-65
2024/01/18 09:36:09;;;;;;;2.50;2.50;;;;;;;;;;5085663;28;20726;-62
2024/01/18 09:38:36;;;;;;;2.35;2.35;;;;;;;;;;5085523;28;20215;-64
2024/01/18 09:41:03;;;;;;;2.47;2.38;;;;;;;;;;5085747;28;20207;-62
2024/01/18 09:43:34;;;;;;;2.60;2.50;;;;;;;;;;5085819;28;20207;-62
2024/01/18 09:46:03;;;;;;;2.53;2.42;;;;;;;;;;5085585;28;20223;-62
2024/01/18 09:48:29;;;;;;;2.30;2.30;;;;;;;;;;5085186;28;20294;-63
2024/01/18 09:50:57;;;;;;;2.60;2.45;;;;;;;;;;5084985;28;20235;-63
2024/01/18 09:53:24;;;;;;;2.13;2.13;;;;;;;;;;5084830;28;20562;-63
2024/01/18 09:55:51;;;;;;;1.85;1.85;;;;;;;;;;5084731;28;20779;-62
2024/01/18 09:58:18;;;;;;;2.00;2.00;;;;;;;;;;5085870;28;20256;-63
2024/01/18 10:00:45;;;;;;;1.85;1.75;;;;;;;;;;5085976;28;20751;-63
2024/01/18 10:03:11;;;;;;;1.63;1.63;;;;;;;;;;5085397;28;20217;-63
2024/01/18 10:05:37;;;;;;;2.00;2.00;;;;;;;;;;5084746;28;20300;-64
2024/01/18 10:08:05;;;;;;;2.47;2.38;;;;;;;;;;5085176;28;20260;-63
2024/01/18 10:10:32;;;;;;;2.25;2.17;;;;;;;;;;5085323;28;20216;-63
2024/01/18 10:12:58;;;;;;;2.20;2.10;;;;;;;;;;5084249;28;20261;-63
2024/01/18 10:15:32;;;;;;;2.17;2.00;;;;;;;;;;5085159;28;20258;-63
2024/01/18 10:17:59;;;;;;;1.73;1.63;;;;;;;;;;5084506;28;20203;-62
2024/01/18 10:20:26;;;;;;;1.83;1.83;;;;;;;;;;5084915;28;20248;-61
2024/01/18 10:22:53;;;;;;;1.88;1.77;;;;;;;;;;5085699;28;20203;-63
2024/01/18 10:25:22;;;;;;;2.10;2.00;;;;;;;;;;5084612;28;20227;-62
2024/01/18 10:27:51;;;;;;;3.35;2.13;;;;;;;;;;5084748;28;20214;-64
2024/01/18 10:30:17;;;;;;;2.42;2.33;;;;;;;;;;5084806;28;20211;-62
2024/01/18 10:32:45;;;;;;;1.90;1.80;;;;;;;;;;5084527;28;20281;-63
2024/01/18 10:35:18;;;;;;;2.13;2.03;;;;;;;;;;5084562;28;20203;-62
2024/01/18 10:37:44;;;;;;;2.08;1.80;;;;;;;;;;5065216;28;20219;-62
2024/01/18 10:40:11;;;;;;;2.72;2.55;;;;;;;;;;5083163;28;20207;-61
2024/01/18 10:42:39;;;;;;;2.92;2.83;;;;;;;;;;5085305;28;20287;-65
2024/01/18 10:45:06;;;;;;;2.20;1.75;;;;;;;;;;5089085;28;20211;-64
2024/01/18 10:47:33;;;;;;;1.38;1.38;;;;;;;;;;5088988;28;20294;-63
2024/01/18 10:50:00;;;;;;;1.70;1.70;;;;;;;;;;5088385;28;20203;-63
2024/01/18 10:52:26;;;;;;;1.70;1.60;;;;;;;;;;5088256;28;21130;-64
2024/01/18 10:54:54;;;;;;;2.00;1.90;;;;;;;;;;5089380;28;20219;-64
2024/01/18 10:57:20;;;;;;;1.77;1.65;;;;;;;;;;5088543;28;20211;-64
2024/01/18 10:59:48;;;;;;;2.00;1.98;;;;;;;;;;5088735;28;20208;-64
2024/01/18 11:02:14;;;;;;;1.75;1.75;;;;;;;;;;5088591;28;20778;-64
2024/01/18 11:04:41;;;;;;;1.30;1.30;;;;;;;;;;5088788;28;20212;-64
2024/01/18 11:07:09;;;;;;;1.77;1.40;;;;;;;;;;5088688;28;20227;-64
2024/01/18 11:09:36;;;;;;;1.40;1.40;;;;;;;;;;5088486;28;20264;-64
2024/01/18 11:12:03;;;;;;;1.50;1.50;;;;;;;;;;5088661;28;20932;-64
2024/01/18 11:14:30;;;;;;;2.08;1.98;;;;;;;;;;5089051;28;20210;-64
2024/01/18 11:17:06;;;;;;;1.33;1.33;;;;;;;;;;5089197;28;20261;-64
2024/01/18 11:19:42;;;;;;;2.97;1.58;;;;;;;;;;5089393;28;20223;-64
2024/01/18 11:22:09;;;;;;;1.70;1.60;;;;;;;;;;5089114;28;20299;-64
2024/01/18 11:24:35;;;;;;;1.63;1.63;;;;;;;;;;5088647;28;20211;-64
2024/01/18 11:27:16;;;;;;;1.52;1.50;;;;;;;;;;5088661;28;20242;-65
2024/01/18 11:29:42;;;;;;;1.65;1.65;;;;;;;;;;5088327;28;20712;-62
2024/01/18 11:32:13;;;;;;;1.75;1.70;;;;;;;;;;5088350;28;20230;-63
2024/01/18 11:34:40;;;;;;;1.50;1.50;;;;;;;;;;5088695;28;20204;-63
2024/01/18 11:37:10;;;;;;;1.40;1.40;;;;;;;;;;5088292;28;20227;-64
2024/01/18 11:39:54;;;;;;;1.45;1.45;;;;;;;;;;5088562;28;20343;-63
2024/01/18 11:42:21;;;;;;;1.75;1.30;;;;;;;;;;5088576;28;20206;-61
2024/01/18 11:44:49;;;;;;;1.40;1.40;;;;;;;;;;5088561;28;20215;-61
2024/01/18 11:47:18;;;;;;;1.80;1.75;;;;;;;;;;5088269;28;20227;-61
2024/01/18 11:49:44;;;;;;;1.90;1.90;;;;;;;;;;5088569;28;20215;-60
2024/01/18 11:52:11;;;;;;;1.48;1.48;;;;;;;;;;5087881;28;20243;-62
2024/01/18 11:54:38;;;;;;;1.70;1.70;;;;;;;;;;5087212;28;20206;-60
2024/01/18 11:57:12;;;;;;;1.50;1.50;;;;;;;;;;5088203;28;20228;-61
2024/01/18 11:59:40;;;;;;;1.77;1.67;;;;;;;;;;5088593;28;20269;-61
2024/01/18 12:02:06;;;;;;;1.65;1.65;;;;;;;;;;5088286;28;20276;-61
2024/01/18 12:04:34;;;;;;;1.55;1.55;;;;;;;;;;5088423;28;20208;-63
2024/01/18 12:07:00;;;;;;;1.70;1.70;;;;;;;;;;5087989;28;20277;-61
2024/01/18 12:09:29;;;;;;;1.80;1.80;;;;;;;;;;5087648;28;20748;-62
2024/01/18 12:11:56;;;;;;;1.88;1.88;;;;;;;;;;5087592;28;20255;-62
2024/01/18 12:14:22;;;;;;;2.40;2.30;;;;;;;;;;5088255;28;20737;-64
2024/01/18 12:16:49;;;;;;;2.70;2.58;;;;;;;;;;5088081;28;20716;-64
2024/01/18 12:19:29;;;;;;;2.30;2.20;;;;;;;;;;5087536;28;20196;-64
2024/01/18 12:21:57;;;;;;;2.92;2.83;;;;;;;;;;5087147;28;20218;-66
2024/01/18 12:24:23;;;;;;;2.70;2.60;;;;;;;;;;5087468;28;20577;-65
2024/01/18 12:26:49;;;;;;;2.35;2.35;;;;;;;;;;5087308;28;21057;-64
2024/01/18 12:29:15;;;;;;;3.10;3.00;;;;;;;;;;5087288;28;20204;-64
2024/01/18 12:31:45;;;;;;;3.05;2.85;;;;;;;;;;5087424;28;20227;-64
2024/01/18 12:34:11;;;;;;;2.70;2.60;;;;;;;;;;5086572;28;20211;-63
2024/01/18 12:36:38;;;;;;;2.92;2.83;;;;;;;;;;5087041;28;20653;-65
2024/01/18 12:39:07;;;;;;;2.35;2.30;;;;;;;;;;5087101;28;20215;-64
2024/01/18 12:41:33;;;;;;;3.00;2.90;;;;;;;;;;5086466;28;20200;-65
2024/01/18 12:44:04;;;;;;;2.05;1.98;;;;;;;;;;5086786;28;20873;-64
2024/01/18 12:46:30;;;;;;;2.83;2.72;;;;;;;;;;5086415;28;20228;-65
2024/01/18 12:48:57;;;;;;;3.03;2.90;;;;;;;;;;5086533;28;20204;-65
2024/01/18 12:51:23;;;;;;;3.80;3.60;;;;;;;;;;5087146;28;20207;-64
2024/01/18 12:53:49;;;;;;;3.17;3.08;;;;;;;;;;5086712;28;20625;-63
2024/01/18 12:56:17;;;;;;;3.03;2.92;;;;;;;;;;5086655;28;20219;-64
2024/01/18 12:58:43;;;;;;;3.38;3.22;;;;;;;;;;5087406;28;20207;-64
2024/01/18 13:01:09;;;;;;;3.63;3.53;;;;;;;;;;5086843;28;20235;-64
2024/01/18 13:03:36;;;;;;;4.45;4.25;;;;;;;;;;5086265;28;20211;-62
2024/01/18 13:06:04;;;;;;;5.15;4.85;;;;;;;;;;5086834;28;20224;-62
2024/01/18 13:08:31;;;;;;;4.63;4.40;;;;;;;;;;5085911;28;20210;-62
2024/01/18 13:10:57;;;;;;;5.35;4.95;;;;;;;;;;5086650;28;20623;-62
2024/01/18 13:13:24;;;;;;;6.00;5.50;;;;;;;;;;5086304;28;20277;-63
2024/01/18 13:15:51;;;;;;;5.90;5.47;;;;;;;;;;5086470;28;20228;-62
2024/01/18 13:18:17;;;;;;;6.57;6.15;;;;;;;;;;5086581;28;20740;-63
2024/01/18 13:20:43;;;;;;;5.85;5.45;;;;;;;;;;5086533;28;20977;-63
2024/01/18 13:23:10;;;;;;;5.13;4.80;;;;;;;;;;5086798;28;20233;-63
2024/01/18 13:25:36;;;;;;;6.05;5.65;;;;;;;;;;5085650;28;20223;-63
2024/01/18 13:28:03;;;;;;;6.75;6.18;;;;;;;;;;5086083;28;20208;-63
2024/01/18 13:30:31;;;;;;;6.32;5.80;;;;;;;;;;5086839;28;20208;-63
2024/01/18 13:32:57;;;;;;;7.07;5.80;;;;;;;;;;5086401;28;20220;-62
2024/01/18 13:35:23;;;;;;;6.72;5.97;;;;;;;;;;5085771;28;20933;-63
2024/01/18 13:37:50;;;;;;;7.85;6.32;;;;;;;;;;5085788;28;20706;-65
2024/01/18 13:40:16;;;;;;;6.80;6.30;;;;;;;;;;5086010;28;20599;-64
2024/01/18 13:42:42;;;;;;;6.32;5.90;;;;;;;;;;5086306;28;20257;-64
2024/01/18 13:45:09;;;;;;;6.78;6.28;;;;;;;;;;5085570;28;20207;-63
2024/01/18 13:47:37;;;;;;;7.80;6.88;;;;;;;;;;5085859;28;20643;-63
2024/01/18 13:50:03;;;;;;;6.20;5.70;;;;;;;;;;5085752;28;20203;-62
2024/01/18 13:52:30;;;;;;;7.30;6.70;;;;;;;;;;5085962;28;20220;-62
2024/01/18 13:54:56;;;;;;;7.55;6.88;;;;;;;;;;5085862;28;20204;-62
2024/01/18 13:57:22;;;;;;;7.43;6.63;;;;;;;;;;5085884;28;20208;-61
2024/01/18 13:59:49;;;;;;;8.52;7.72;;;;;;;;;;5086132;28;20262;-63
2024/01/18 14:02:15;;;;;;;7.70;7.00;;;;;;;;;;5085572;28;20207;-63
2024/01/18 14:04:43;;;;;;;8.68;7.88;;;;;;;;;;5086032;28;20211;-62
2024/01/18 14:07:09;;;;;;;8.45;7.75;;;;;;;;;;5085715;28;20227;-64
2024/01/18 14:09:36;;;;;;;8.65;7.88;;;;;;;;;;5085437;28;20215;-63
2024/01/18 14:12:02;;;;;;;9.10;8.30;;;;;;;;;;5085767;28;20224;-61
2024/01/18 14:14:29;;;;;;;8.75;7.85;;;;;;;;;;5085883;28;20299;-64
2024/01/18 14:16:57;;;;;;;9.93;8.93;;;;;;;;;;5086257;28;20277;-64
2024/01/18 14:19:23;;;;;;;8.82;8.02;;;;;;;;;;5085330;28;20821;-63
2024/01/18 14:21:51;;;;;;;8.60;7.80;;;;;;;;;;5085554;28;20220;-64
2024/01/18 14:24:17;;;;;;;10.00;9.10;;;;;;;;;;5085328;28;20348;-64
2024/01/18 14:26:43;;;;;;;10.65;8.93;;;;;;;;;;5085076;28;20292;-64
2024/01/18 14:29:11;;;;;;;9.43;8.52;;;;;;;;;;5084981;28;20241;-64
2024/01/18 14:31:37;;;;;;;9.68;8.77;;;;;;;;;;5083766;28;20204;-65
2024/01/18 14:34:03;;;;;;;10.48;9.45;;;;;;;;;;5083121;28;20300;-64
2024/01/18 14:36:30;;;;;;;13.00;9.43;;;;;;;;;;5083289;28;20245;-64
2024/01/18 14:38:57;;;;;;;10.00;9.00;;;;;;;;;;5083539;28;20208;-64
2024/01/18 14:41:23;;;;;;;10.57;9.57;;;;;;;;;;5083000;28;20260;-64